Time;durP1;ratioP1;P1;durP2;ratioP2;P2;SDS_P1;SDS_P2;PMS_P1;PMS_P2;Temp;Humidity;BMP_temperature;BMP_pressure;BME280_temperature;BME280_humidity;BME280_pressure;Samples;Min_cycle;Max_cycle;Signal;HPM_P1;HPM_P2
2021/08/28 00:01:52;;;;;;;1.95;1.02;;;;;;;15.60;57.68;100343.22;5321735;26;20128;-83
2021/08/28 00:04:20;;;;;;;5.50;1.20;;;;;;;15.63;57.34;100343.13;5322226;26;20060;-83
2021/08/28 00:06:47;;;;;;;2.03;1.10;;;;;;;15.81;56.61;100347.06;5321960;26;20099;-83
2021/08/28 00:09:14;;;;;;;3.90;1.10;;;;;;;15.77;56.30;100345.44;5322442;26;20080;-84
2021/08/28 00:11:41;;;;;;;1.92;0.93;;;;;;;15.63;56.62;100338.69;5322139;26;20064;-83
2021/08/28 00:14:08;;;;;;;1.92;1.35;;;;;;;15.48;57.42;100339.13;5321783;26;20065;-84
2021/08/28 00:16:35;;;;;;;1.75;0.85;;;;;;;15.41;58.33;100341.06;5322091;26;20152;-82
2021/08/28 00:19:02;;;;;;;1.58;1.02;;;;;;;15.34;58.58;100347.41;5322138;26;20071;-83
2021/08/28 00:21:29;;;;;;;2.33;1.05;;;;;;;15.38;58.47;100337.59;5321394;26;20446;-82
2021/08/28 00:23:56;;;;;;;1.60;0.90;;;;;;;15.53;57.66;100339.88;5321841;26;20603;-83
2021/08/28 00:26:23;;;;;;;3.15;0.90;;;;;;;15.44;57.52;100345.37;5321816;26;20056;-83
2021/08/28 00:28:50;;;;;;;4.65;1.02;;;;;;;15.47;57.39;100347.97;5321974;26;20119;-82
2021/08/28 00:31:17;;;;;;;2.10;1.10;;;;;;;15.68;56.50;100365.09;5321748;26;20539;-83
2021/08/28 00:33:44;;;;;;;1.52;0.70;;;;;;;15.47;56.88;100355.03;5321662;26;20060;-84
2021/08/28 00:36:11;;;;;;;9.32;1.65;;;;;;;15.57;56.54;100348.59;5321540;26;20116;-83
2021/08/28 00:38:38;;;;;;;5.00;1.15;;;;;;;15.52;56.50;100345.19;5321893;26;20064;-82
2021/08/28 00:41:05;;;;;;;3.33;0.98;;;;;;;15.36;57.35;100350.03;5321649;26;20064;-83
2021/08/28 00:43:32;;;;;;;6.97;0.85;;;;;;;15.57;56.84;100338.87;5322065;26;20071;-83
2021/08/28 00:46:00;;;;;;;2.80;0.98;;;;;;;15.46;57.28;100340.94;5321604;26;20072;-83
2021/08/28 00:48:27;;;;;;;2.00;1.00;;;;;;;15.64;56.91;100339.56;5321901;26;20743;-83
2021/08/28 00:50:54;;;;;;;2.37;1.08;;;;;;;15.62;57.16;100339.63;5321675;26;20086;-82
2021/08/28 00:53:22;;;;;;;2.15;0.90;;;;;;;15.31;58.34;100346.63;5321525;26;20068;-83
2021/08/28 00:55:50;;;;;;;1.60;0.82;;;;;;;15.34;58.41;100346.56;5321982;26;20044;-83
2021/08/28 00:58:17;;;;;;;2.53;1.33;;;;;;;15.42;57.97;100339.28;5321714;26;20077;-83
2021/08/28 01:00:51;;;;;;;3.55;1.27;;;;;;;15.40;57.98;100347.25;5321882;26;20131;-83
2021/08/28 01:03:26;;;;;;;1.70;1.00;;;;;;;15.41;57.99;100345.47;5321548;26;20106;-83
2021/08/28 01:05:56;;;;;;;1.23;0.88;;;;;;;15.27;57.83;100350.28;5321935;26;20461;-83
2021/08/28 01:08:44;;;;;;;3.08;1.20;;;;;;;15.35;57.39;100348.28;5321765;26;20079;-82
2021/08/28 01:11:17;;;;;;;1.92;0.88;;;;;;;15.46;56.73;100348.87;5321970;26;20421;-82
2021/08/28 01:13:49;;;;;;;3.75;1.00;;;;;;;15.22;57.55;100345.97;5341649;26;20067;-83
2021/08/28 01:16:20;;;;;;;5.68;1.33;;;;;;;15.12;57.81;100347.12;5322036;26;20061;-83
2021/08/28 01:18:52;;;;;;;2.80;1.35;;;;;;;15.14;57.26;100355.84;5321447;26;20064;-83
2021/08/28 01:21:27;;;;;;;2.05;1.02;;;;;;;15.22;56.61;100345.09;5321875;26;20064;-83
2021/08/28 01:23:57;;;;;;;1.40;0.90;;;;;;;15.31;56.08;100351.94;5321897;26;20052;-84
2021/08/28 01:26:30;;;;;;;1.52;0.90;;;;;;;15.08;57.09;100350.72;5321968;26;20064;-83
2021/08/28 01:29:25;;;;;;;3.08;1.10;;;;;;;15.17;56.87;100347.84;5321712;26;20068;-83
2021/08/28 01:31:54;;;;;;;2.62;1.20;;;;;;;15.21;57.03;100353.94;5339891;26;20064;-83
2021/08/28 01:34:22;;;;;;;4.65;1.62;;;;;;;15.17;57.20;100355.78;5321854;26;20124;-82
2021/08/28 01:36:50;;;;;;;2.17;0.80;;;;;;;15.10;57.29;100350.69;5322047;26;20049;-82
2021/08/28 01:39:18;;;;;;;2.45;1.02;;;;;;;15.15;57.00;100354.09;5321758;26;20140;-83
2021/08/28 01:41:54;;;;;;;1.17;0.70;;;;;;;15.15;57.03;100348.81;5321635;26;20429;-83
2021/08/28 01:44:23;;;;;;;1.58;1.10;;;;;;;15.12;56.73;100352.41;5321756;26;20052;-83
2021/08/28 01:46:52;;;;;;;4.57;1.30;;;;;;;15.31;56.29;100349.28;5321569;26;20064;-83
2021/08/28 01:49:22;;;;;;;1.80;0.90;;;;;;;15.29;56.41;100344.00;5321340;26;20164;-83
2021/08/28 01:51:49;;;;;;;1.50;0.90;;;;;;;15.20;57.02;100339.81;5321712;26;20115;-82
2021/08/28 01:54:17;;;;;;;1.30;0.80;;;;;;;15.26;56.91;100343.22;5339724;26;20049;-83
2021/08/28 01:56:44;;;;;;;4.40;1.30;;;;;;;15.27;56.58;100337.06;5321920;26;20056;-82
2021/08/28 01:59:13;;;;;;;4.00;1.67;;;;;;;15.15;56.53;100341.75;5321160;26;20080;-83
2021/08/28 02:01:40;;;;;;;3.70;1.63;;;;;;;14.92;57.98;100338.81;5321393;26;20128;-83
2021/08/28 02:04:08;;;;;;;1.73;1.12;;;;;;;14.94;58.01;100331.69;5321639;26;20571;-83
2021/08/28 02:06:49;;;;;;;3.25;1.02;;;;;;;14.88;58.17;100332.72;5321547;26;20056;-83
2021/08/28 02:09:54;;;;;;;1.10;0.90;;;;;;;14.74;59.00;100332.19;5321758;26;20722;-83
2021/08/28 02:12:37;;;;;;;1.50;1.00;;;;;;;14.82;58.91;100324.03;5307768;26;20064;-83
2021/08/28 02:15:04;;;;;;;1.48;1.08;;;;;;;14.40;59.53;100324.13;5321615;26;20430;-83
2021/08/28 02:17:36;;;;;;;1.95;0.80;;;;;;;14.75;58.53;100324.19;5321185;26;20079;-83
2021/08/28 02:20:07;;;;;;;2.58;1.05;;;;;;;14.71;58.56;100326.97;5321571;26;20084;-83
2021/08/28 02:22:40;;;;;;;4.07;1.10;;;;;;;14.85;57.89;100321.31;5321527;26;20060;-82
2021/08/28 02:25:46;;;;;;;1.70;0.93;;;;;;;14.93;57.49;100332.59;5321660;26;20059;-82
2021/08/28 02:28:16;;;;;;;3.92;1.00;;;;;;;15.04;57.02;100327.91;5321460;26;20079;-82
2021/08/28 02:30:45;;;;;;;1.98;1.10;;;;;;;14.83;57.04;100331.09;5321744;26;20103;-83
2021/08/28 02:33:13;;;;;;;1.27;0.90;;;;;;;14.68;57.33;100329.69;5321463;26;20061;-82
2021/08/28 02:35:43;;;;;;;2.15;0.85;;;;;;;14.76;57.40;100339.19;5321315;26;20087;-83
2021/08/28 02:38:10;;;;;;;1.90;1.12;;;;;;;14.90;57.45;100332.66;5321512;26;20079;-83
2021/08/28 02:40:39;;;;;;;3.05;1.23;;;;;;;14.90;57.99;100327.38;5321374;26;20077;-83
2021/08/28 02:43:08;;;;;;;4.18;1.10;;;;;;;15.04;57.67;100327.03;5321638;26;20056;-82
2021/08/28 02:45:36;;;;;;;1.70;1.10;;;;;;;15.04;57.89;100325.25;5321428;26;20070;-82
2021/08/28 02:48:04;;;;;;;1.27;1.00;;;;;;;14.99;58.29;100325.37;5321239;26;20074;-82
2021/08/28 02:50:33;;;;;;;2.15;1.10;;;;;;;14.62;59.45;100322.78;5321475;26;20103;-82
2021/08/28 02:53:02;;;;;;;2.40;1.35;;;;;;;14.58;59.56;100326.38;5321515;26;20117;-83
2021/08/28 02:55:31;;;;;;;2.37;1.40;;;;;;;13.93;61.53;100323.38;5321355;26;20068;-82
2021/08/28 02:58:00;;;;;;;2.58;1.17;;;;;;;13.97;61.42;100325.94;5321236;26;20722;-82
2021/08/28 03:00:28;;;;;;;4.37;2.35;;;;;;;14.31;60.25;100312.84;5321779;26;20132;-83
2021/08/28 03:02:56;;;;;;;1.60;1.10;;;;;;;13.80;61.68;100315.72;5322437;26;20074;-82
2021/08/28 03:05:23;;;;;;;2.47;1.30;;;;;;;13.35;63.43;100318.34;5321953;26;20464;-82
2021/08/28 03:07:51;;;;;;;2.40;1.23;;;;;;;13.18;64.47;100312.47;5322051;26;20048;-83
2021/08/28 03:10:20;;;;;;;4.05;1.23;;;;;;;12.96;65.20;100312.81;5322407;26;20080;-83
2021/08/28 03:12:47;;;;;;;3.35;1.15;;;;;;;12.24;67.74;100319.22;5322363;26;20068;-82
2021/08/28 03:15:14;;;;;;;2.80;1.35;;;;;;;13.17;64.57;100331.81;5321916;26;20441;-83
2021/08/28 03:17:42;;;;;;;5.12;1.60;;;;;;;13.25;64.37;100335.22;5322041;26;20048;-82
2021/08/28 03:20:10;;;;;;;3.20;1.45;;;;;;;13.44;64.02;100334.91;5321668;26;20068;-83
2021/08/28 03:22:39;;;;;;;3.20;1.27;;;;;;;13.37;64.04;100329.72;5321829;26;20086;-83
2021/08/28 03:25:10;;;;;;;2.92;1.37;;;;;;;13.38;64.27;100327.97;5323015;26;20092;-83
2021/08/28 03:27:40;;;;;;;3.03;1.50;;;;;;;13.45;64.51;100336.66;5322045;26;20762;-82
2021/08/28 03:30:09;;;;;;;;;;;;;;;13.82;63.65;100328.87;5322333;26;20139;-83
2021/08/28 03:32:40;;;;;;;2.75;1.30;;;;;;;14.03;62.06;100322.28;5322155;26;20486;-83
2021/08/28 03:35:09;;;;;;;3.08;1.40;;;;;;;13.98;62.26;100327.66;5322114;26;20476;-82
2021/08/28 03:37:39;;;;;;;3.10;0.93;;;;;;;14.00;62.36;100325.88;5322430;26;20054;-82
2021/08/28 03:40:10;;;;;;;2.20;1.30;;;;;;;13.97;62.46;100320.66;5322153;26;20472;-82
2021/08/28 03:42:38;;;;;;;5.97;1.62;;;;;;;14.15;62.03;100319.41;5322165;26;20106;-82
2021/08/28 03:45:11;;;;;;;2.05;1.35;;;;;;;14.23;62.01;100308.63;5321563;26;20365;-82
2021/08/28 03:47:43;;;;;;;4.03;1.62;;;;;;;14.22;61.96;100307.78;5322072;26;20143;-82
2021/08/28 03:50:12;;;;;;;7.07;1.58;;;;;;;14.01;62.92;100303.81;5321598;26;20103;-83
2021/08/28 03:52:39;;;;;;;4.65;1.40;;;;;;;14.29;62.08;100305.84;5322039;26;20078;-83
2021/08/28 03:55:06;;;;;;;2.33;1.33;;;;;;;14.40;61.75;100316.19;5321997;26;20075;-83
2021/08/28 03:57:33;;;;;;;2.35;1.15;;;;;;;14.47;61.50;100325.72;5321793;26;20441;-83
2021/08/28 04:00:00;;;;;;;1.90;1.00;;;;;;;14.38;61.44;100316.22;5321835;26;20065;-83
2021/08/28 04:02:27;;;;;;;3.17;1.15;;;;;;;14.48;61.37;100322.19;5321832;26;20068;-83
2021/08/28 04:04:55;;;;;;;4.90;1.67;;;;;;;14.63;60.86;100319.22;5321815;26;20060;-83
2021/08/28 04:07:22;;;;;;;3.78;1.30;;;;;;;14.70;60.86;100322.56;5322145;26;20048;-84
2021/08/28 04:09:49;;;;;;;5.82;1.30;;;;;;;14.81;60.61;100330.25;5321917;26;20134;-83
2021/08/28 04:12:16;;;;;;;5.00;1.20;;;;;;;14.75;60.78;100320.69;5322117;26;20078;-82
2021/08/28 04:14:44;;;;;;;2.40;0.82;;;;;;;14.62;61.10;100325.41;5341888;26;20439;-82
2021/08/28 04:17:11;;;;;;;8.20;1.83;;;;;;;14.59;61.17;100330.78;5321908;26;20068;-83
2021/08/28 04:19:38;;;;;;;1.20;0.93;;;;;;;14.73;60.76;100333.06;5321852;26;20343;-83
2021/08/28 04:22:05;;;;;;;4.30;1.50;;;;;;;14.74;60.73;100334.84;5321624;26;20075;-82
2021/08/28 04:24:32;;;;;;;3.75;1.30;;;;;;;14.76;60.65;100328.59;5322087;26;20066;-83
2021/08/28 04:27:00;;;;;;;1.92;1.08;;;;;;;14.94;59.98;100329.94;5321763;26;20060;-82
2021/08/28 04:29:28;;;;;;;2.40;1.20;;;;;;;14.82;60.31;100337.28;5321957;26;20462;-81
2021/08/28 04:31:55;;;;;;;3.92;1.40;;;;;;;14.86;60.19;100321.31;5321898;26;20235;-83
2021/08/28 04:34:22;;;;;;;1.85;1.05;;;;;;;14.74;60.49;100322.47;5321884;26;20143;-83
2021/08/28 04:36:49;;;;;;;3.90;1.27;;;;;;;14.85;60.44;100322.19;5321533;26;20082;-82
2021/08/28 04:39:16;;;;;;;3.03;1.10;;;;;;;14.75;60.72;100325.97;5321825;26;20122;-82
2021/08/28 04:41:43;;;;;;;3.75;1.20;;;;;;;14.79;60.59;100326.78;5322063;26;20167;-82
2021/08/28 04:44:10;;;;;;;2.67;1.87;;;;;;;14.71;60.86;100330.47;5321881;26;20087;-83
2021/08/28 04:46:37;;;;;;;2.78;1.58;;;;;;;14.74;61.02;100322.47;5321832;26;20048;-82
2021/08/28 04:49:04;;;;;;;2.05;0.70;;;;;;;14.89;60.86;100330.94;5321792;26;20087;-83
2021/08/28 04:51:31;;;;;;;2.15;1.15;;;;;;;15.12;60.35;100333.03;5321608;26;20068;-83
2021/08/28 04:53:58;;;;;;;2.60;1.42;;;;;;;14.93;60.78;100336.09;5321938;26;20064;-82
2021/08/28 04:56:26;;;;;;;3.60;1.17;;;;;;;14.85;61.20;100337.19;5321968;26;20068;-82
2021/08/28 04:58:53;;;;;;;5.18;1.45;;;;;;;14.93;61.38;100327.31;5321704;26;20056;-83
2021/08/28 05:01:20;;;;;;;2.17;1.12;;;;;;;15.31;60.15;100325.47;5321652;26;20079;-83
2021/08/28 05:03:47;;;;;;;2.90;1.30;;;;;;;15.23;60.75;100333.59;5322053;26;20065;-83
2021/08/28 05:06:17;;;;;;;5.22;1.30;;;;;;;15.07;61.62;100333.13;5321522;26;20064;-83
2021/08/28 05:08:44;;;;;;;4.90;1.23;;;;;;;15.44;60.38;100332.16;5321725;26;20078;-83
2021/08/28 05:11:12;;;;;;;2.40;1.50;;;;;;;15.69;59.26;100329.75;5321632;26;20068;-83
2021/08/28 05:13:39;;;;;;;4.45;1.60;;;;;;;15.70;59.55;100333.25;5321776;26;20052;-83
2021/08/28 05:16:06;;;;;;;7.68;1.87;;;;;;;15.67;59.84;100332.41;5321703;26;20536;-83
2021/08/28 05:18:34;;;;;;;3.08;1.75;;;;;;;15.47;60.68;100332.09;5321865;26;20079;-82
2021/08/28 05:21:01;;;;;;;5.20;1.90;;;;;;;15.55;61.00;100329.22;5321940;26;20124;-83
2021/08/28 05:23:28;;;;;;;4.10;1.90;;;;;;;15.71;60.56;100327.06;5321334;26;20060;-83
2021/08/28 05:25:55;;;;;;;4.75;1.45;;;;;;;15.69;60.72;100334.19;5321500;26;20060;-83
2021/08/28 05:28:22;;;;;;;4.80;2.10;;;;;;;15.34;62.88;100336.81;5321760;26;20069;-82
2021/08/28 05:30:49;;;;;;;6.62;2.25;;;;;;;15.48;62.40;100338.25;5321213;26;20068;-84
2021/08/28 05:33:19;;;;;;;2.40;1.70;;;;;;;15.54;62.92;100331.00;5322033;26;20071;-82
2021/08/28 05:35:54;;;;;;;5.37;2.17;;;;;;;15.49;63.83;100335.56;5322188;26;20113;-84
2021/08/28 05:38:23;;;;;;;4.30;1.87;;;;;;;15.69;62.81;100336.81;5322104;26;20065;-83
2021/08/28 05:40:55;;;;;;;4.65;1.95;;;;;;;15.89;62.08;100334.50;5321390;26;20067;-83
2021/08/28 05:43:23;;;;;;;5.90;2.03;;;;;;;15.95;60.27;100338.75;5321814;26;20132;-84
2021/08/28 05:45:55;;;;;;;3.08;1.65;;;;;;;15.87;60.53;100342.47;5321657;26;20060;-84
2021/08/28 05:48:23;;;;;;;2.40;1.85;;;;;;;16.22;61.21;100342.34;5321465;26;20088;-83
2021/08/28 05:50:50;;;;;;;4.62;1.87;;;;;;;16.62;58.83;100336.72;5321384;26;20115;-83
2021/08/28 05:53:17;;;;;;;6.15;3.72;;;;;;;16.61;58.47;100334.94;5321465;26;20060;-83
2021/08/28 05:55:55;;;;;;;4.87;1.77;;;;;;;16.94;57.89;100327.75;5321968;26;20052;-83
2021/08/28 05:58:24;;;;;;;3.12;2.00;;;;;;;16.87;58.50;100335.94;5321463;26;20068;-83
2021/08/28 06:01:02;;;;;;;6.70;1.65;;;;;;;16.99;58.36;100338.19;5321272;26;20084;-83
2021/08/28 06:03:30;;;;;;;3.50;1.52;;;;;;;17.26;58.11;100328.41;5339912;26;20064;-83
2021/08/28 06:05:59;;;;;;;3.17;1.70;;;;;;;17.51;56.58;100320.47;5321701;26;20064;-83
2021/08/28 06:08:35;;;;;;;2.47;1.55;;;;;;;17.47;56.10;100326.78;5322702;26;20124;-82
2021/08/28 06:11:03;;;;;;;3.55;1.50;;;;;;;17.41;56.91;100333.22;5321358;26;20430;-84
2021/08/28 06:13:32;;;;;;;4.03;1.40;;;;;;;17.52;56.92;100330.16;5321879;26;20071;-83
2021/08/28 06:16:00;;;;;;;3.90;1.65;;;;;;;17.70;56.90;100326.84;5321170;26;20093;-82
2021/08/28 06:18:31;;;;;;;3.25;1.75;;;;;;;17.62;56.96;100330.72;5321904;26;20532;-83
2021/08/28 06:21:03;;;;;;;6.32;2.78;;;;;;;17.40;57.92;100331.47;5321882;26;20082;-84
2021/08/28 06:23:34;;;;;;;7.43;2.28;;;;;;;17.39;58.75;100326.22;5321824;26;20473;-82
2021/08/28 06:26:01;;;;;;;5.32;2.20;;;;;;;17.16;59.33;100324.34;5321690;26;20094;-84
2021/08/28 06:28:29;;;;;;;9.63;3.25;;;;;;;17.31;58.35;100322.97;5321234;26;20067;-83
2021/08/28 06:31:19;;;;;;;3.67;1.90;;;;;;;17.25;59.14;100324.03;5324027;26;20079;-84
2021/08/28 06:33:46;;;;;;;9.35;3.22;;;;;;;17.44;58.57;100317.16;5320731;26;20832;-82
2021/08/28 06:36:23;;;;;;;;;;;;;;;;;;;;;
2021/08/28 06:39:14;;;;;;;2.55;1.52;;;;;;;17.60;59.26;100311.31;5338718;26;20060;-83
2021/08/28 06:41:43;;;;;;;3.58;1.25;;;;;;;17.51;59.51;100311.63;5321364;26;20096;-83
2021/08/28 06:44:11;;;;;;;3.58;1.60;;;;;;;17.56;59.51;100309.66;5321617;26;20110;-84
2021/08/28 06:46:51;;;;;;;3.30;1.73;;;;;;;17.73;58.88;100309.06;5321582;26;20110;-82
2021/08/28 06:49:20;;;;;;;5.18;2.00;;;;;;;18.15;58.31;100304.84;5321495;26;20069;-82
2021/08/28 06:51:47;;;;;;;2.53;1.73;;;;;;;18.55;56.60;100307.72;5321336;26;20064;-83
2021/08/28 06:54:20;;;;;;;4.78;1.65;;;;;;;18.87;55.89;100302.91;5321237;26;20060;-82
2021/08/28 06:57:21;;;;;;;5.87;1.80;;;;;;;18.91;56.19;100313.34;5289725;26;20075;-83
2021/08/28 07:00:26;;;;;;;;;;;;;;;;;;;;;
2021/08/28 07:03:24;;;;;;;4.00;1.92;;;;;;;18.91;58.38;100307.16;5339671;26;20511;-83
2021/08/28 07:06:18;;;;;;;5.62;1.87;;;;;;;19.23;58.54;100306.66;5322732;26;20056;-83
2021/08/28 07:09:16;;;;;;;6.57;2.08;;;;;;;19.69;56.21;100298.50;5310527;26;20075;-83
2021/08/28 07:12:05;;;;;;;;;;;;;;;;;;;;;
2021/08/28 07:15:09;;;;;;;3.90;2.28;;;;;;;19.82;56.78;100299.66;5338831;26;20067;-83
2021/08/28 07:18:14;;;;;;;10.75;2.70;;;;;;;20.08;54.82;100306.44;5299481;26;20048;-84
2021/08/28 07:21:10;;;;;;;4.05;2.12;;;;;;;20.42;54.89;100305.72;5322533;26;20061;-83
2021/08/28 07:23:54;;;;;;;;;;;;;;;;;;;;;
2021/08/28 07:26:38;;;;;;;4.37;2.42;;;;;;;20.86;53.32;100309.88;5333208;26;20445;-83
2021/08/28 07:29:15;;;;;;;4.65;2.50;;;;;;;21.09;53.52;100306.06;5322624;26;20067;-84
2021/08/28 07:32:18;;;;;;;;;;;;;;;;;;;;;
2021/08/28 07:34:59;;;;;;;4.20;2.62;;;;;;;20.83;53.15;100294.87;5340929;26;20060;-82
2021/08/28 07:37:51;;;;;;;;;;;;;;;;;;;;;
2021/08/28 07:40:45;;;;;;;6.15;3.08;;;;;;;20.76;54.69;100292.56;5327942;26;20067;-84
2021/08/28 07:43:38;;;;;;;;;;;;;;;;;;;;;
2021/08/28 07:46:48;;;;;;;;;;;;;;;;;;;;;
2021/08/28 07:49:49;;;;;;;4.22;3.00;;;;;;;21.07;55.42;100302.59;5329072;26;20070;-83
2021/08/28 07:52:44;;;;;;;;;;;;;;;;;;;;;
2021/08/28 07:55:28;;;;;;;5.07;2.10;;;;;;;21.51;53.41;100305.66;5322748;26;20346;-84
2021/08/28 07:58:09;;;;;;;;;;;;;;;;;;;;;
2021/08/28 08:01:19;;;;;;;7.00;3.95;;;;;;;21.77;52.24;100288.22;5294735;27;20098;-83
2021/08/28 08:04:01;;;;;;;;;;;;;;;;;;;;;
2021/08/28 08:10:20;;;;;;;;;;;;;;;;;;;;;
2021/08/28 08:13:17;;;;;;;6.97;3.65;;;;;;;21.73;53.96;100291.13;5292806;27;20635;-82
2021/08/28 08:16:13;;;;;;;4.43;2.30;;;;;;;22.01;52.22;100285.16;5277197;27;20517;-82
2021/08/28 08:18:56;;;;;;;;;;;;;;;;;;;;;
2021/08/28 08:22:17;;;;;;;7.18;3.10;;;;;;;21.76;53.29;100296.31;5319708;27;20088;-83
2021/08/28 08:25:05;;;;;;;6.12;2.90;;;;;;;22.49;51.50;100301.28;5319249;27;20651;-83
2021/08/28 08:27:56;;;;;;;5.70;3.50;;;;;;;22.74;50.84;100295.38;5301936;27;20133;-82
2021/08/28 08:30:39;;;;;;;5.75;3.08;;;;;;;22.99;50.13;100292.16;5299875;27;20191;-84
2021/08/28 08:33:06;;;;;;;;;;;;;;;23.16;49.35;100302.75;5299987;27;20132;-83
2021/08/28 08:35:43;;;;;;;4.75;3.40;;;;;;;23.15;49.14;100303.72;5317814;27;19975;-83
2021/08/28 08:38:13;;;;;;;6.12;2.50;;;;;;;22.94;50.20;100295.06;5300194;27;20075;-83
2021/08/28 08:40:45;;;;;;;4.28;2.45;;;;;;;23.70;48.04;100286.94;5299416;27;20071;-83
2021/08/28 08:43:29;;;;;;;6.80;2.33;;;;;;;23.85;47.93;100289.62;5301326;27;20120;-82
2021/08/28 08:46:14;;;;;;;3.50;2.00;;;;;;;24.07;47.11;100281.97;5301527;27;20087;-84
2021/08/28 08:48:51;;;;;;;5.95;2.58;;;;;;;23.82;47.71;100293.38;5300582;27;20065;-83
2021/08/28 08:51:23;;;;;;;4.60;1.62;;;;;;;24.40;45.08;100288.81;5299736;27;20072;-84
2021/08/28 08:54:05;;;;;;;;;;;;;;;;;;;;;
2021/08/28 08:56:55;;;;;;;;;;;;;;;;;;;;;
2021/08/28 08:59:46;;;;;;;3.00;1.42;;;;;;;24.67;43.90;100291.53;5305999;27;20343;-82
2021/08/28 09:02:57;;;;;;;2.00;1.33;;;;;;;25.04;43.33;100287.25;5193585;27;20085;-84
2021/08/28 09:05:48;;;;;;;4.10;1.42;;;;;;;25.09;41.84;100282.44;5172508;27;20134;-83
2021/08/28 09:08:32;;;;;;;4.68;1.67;;;;;;;24.74;42.86;100282.13;5186733;27;20133;-83
2021/08/28 09:11:55;;;;;;;3.08;1.37;;;;;;;24.98;42.33;100274.22;5175296;27;20081;-84
2021/08/28 09:14:22;;;;;;;2.60;1.40;;;;;;;24.83;43.67;100270.75;5185138;27;20067;-83
2021/08/28 09:17:30;;;;;;;2.05;1.20;;;;;;;25.28;41.35;100265.91;5186850;27;20209;-84
2021/08/28 09:20:25;;;;;;;3.22;1.30;;;;;;;24.50;41.72;100273.81;5201969;27;20108;-82
2021/08/28 09:23:21;;;;;;;2.85;1.67;;;;;;;24.40;42.31;100270.84;5260188;27;20069;-84
2021/08/28 09:25:59;;;;;;;3.60;1.42;;;;;;;24.72;42.78;100265.22;5283769;27;20053;-83
2021/08/28 09:28:34;;;;;;;1.98;1.20;;;;;;;25.15;41.39;100265.06;5301504;27;20073;-84
2021/08/28 09:37:30;;;;;;;2.75;1.15;;;;;;;25.54;39.83;100257.87;5314669;27;20064;-82
2021/08/28 09:40:18;;;;;;;1.62;1.23;;;;;;;26.01;39.80;100254.50;5310835;26;20143;31
2021/08/28 09:42:55;;;;;;;;;;;;;;;26.32;38.04;100252.22;5298713;26;20064;-82
2021/08/28 09:48:13;;;;;;;3.03;1.00;;;;;;;26.42;36.19;100247.91;5312254;26;20061;-82
2021/08/28 09:50:46;;;;;;;2.75;1.33;;;;;;;26.60;38.81;100247.53;5298699;27;20492;-81
2021/08/28 09:56:26;;;;;;;1.05;0.73;;;;;;;27.03;36.19;100249.66;5319450;27;20071;-83
2021/08/28 09:58:53;;;;;;;1.95;0.88;;;;;;;27.37;35.25;100242.53;5299301;27;20442;-83
2021/08/28 10:01:21;;;;;;;1.80;1.02;;;;;;;27.68;36.96;100249.06;5299521;27;20072;-83
2021/08/28 10:03:59;;;;;;;2.37;0.90;;;;;;;27.97;35.08;100257.56;5299522;27;20065;-84
2021/08/28 10:06:28;;;;;;;2.25;1.33;;;;;;;28.36;33.70;100262.53;5299831;27;20068;-83
2021/08/28 10:08:59;;;;;;;2.25;1.02;;;;;;;28.47;32.66;100257.13;5299268;27;20056;-83
2021/08/28 10:11:37;;;;;;;1.87;0.88;;;;;;;28.65;31.12;100252.00;5299598;27;20131;-83
2021/08/28 10:14:07;;;;;;;2.67;1.02;;;;;;;28.72;30.01;100243.28;5299360;27;20061;-83
2021/08/28 10:16:36;;;;;;;2.92;0.98;;;;;;;28.42;32.70;100237.75;5299594;27;20053;-84
2021/08/28 10:19:10;;;;;;;1.30;0.70;;;;;;;28.86;33.25;100239.41;5300575;27;20061;-83
2021/08/28 10:21:45;;;;;;;1.12;0.55;;;;;;;29.33;29.10;100215.56;5299772;27;20063;-83
2021/08/28 10:24:48;;;;;;;1.92;0.65;;;;;;;29.35;26.66;100218.12;5302636;27;20127;-84
2021/08/28 10:27:53;;;;;;;2.85;1.15;;;;;;;29.51;26.78;100220.34;5267460;27;20120;-84
2021/08/28 10:30:35;;;;;;;1.55;0.85;;;;;;;29.99;29.84;100220.56;5301677;27;20415;-83
2021/08/28 10:33:07;;;;;;;5.12;1.55;;;;;;;30.18;29.50;100221.59;5299898;27;20068;-84
2021/08/28 10:35:34;;;;;;;1.98;1.23;;;;;;;29.44;30.59;100222.72;5299501;27;20084;-83
2021/08/28 10:38:02;;;;;;;1.60;1.30;;;;;;;29.91;29.04;100214.09;5299329;27;20078;-84
2021/08/28 10:40:32;;;;;;;2.72;0.90;;;;;;;29.81;29.54;100214.94;5299657;27;20159;-83
2021/08/28 10:43:03;;;;;;;1.45;0.90;;;;;;;30.18;29.47;100213.47;5300036;27;20064;-83
2021/08/28 10:45:34;;;;;;;2.90;1.00;;;;;;;30.11;29.85;100205.91;5299174;27;20078;-84
2021/08/28 10:48:05;;;;;;;1.55;1.25;;;;;;;30.18;28.53;100208.03;5299909;27;20102;-82
2021/08/28 10:50:38;;;;;;;2.45;1.10;;;;;;;30.17;28.55;100206.34;5299239;27;20128;-82
2021/08/28 10:53:07;;;;;;;1.23;0.70;;;;;;;30.46;27.67;100199.13;5299439;27;20069;-83
2021/08/28 10:55:40;;;;;;;3.78;0.90;;;;;;;30.26;28.15;100198.25;5298931;27;20068;-83
2021/08/28 10:58:20;;;;;;;1.42;0.90;;;;;;;30.61;27.99;100191.44;5299372;27;20723;-84
2021/08/28 11:00:49;;;;;;;2.80;0.82;;;;;;;30.39;30.39;100197.16;5299273;27;20109;-83
2021/08/28 11:03:27;;;;;;;1.17;0.80;;;;;;;30.49;28.63;100193.44;5317587;27;20102;-84
2021/08/28 11:06:13;;;;;;;1.55;1.00;;;;;;;30.35;29.10;100193.84;5299293;27;20424;-84
2021/08/28 11:08:51;;;;;;;3.53;1.08;;;;;;;29.98;27.96;100201.75;5299305;27;20061;-82
2021/08/28 11:11:20;;;;;;;2.12;0.90;;;;;;;30.00;28.83;100202.44;5299617;27;20500;-82
2021/08/28 11:14:06;;;;;;;1.45;0.90;;;;;;;30.13;26.66;100202.22;5318970;27;20068;-83
2021/08/28 11:16:40;;;;;;;2.10;0.80;;;;;;;29.97;27.53;100203.56;5298944;27;20434;-84
2021/08/28 11:19:32;;;;;;;0.80;0.60;;;;;;;29.88;27.50;100199.87;5299050;27;20053;-84
2021/08/28 11:22:07;;;;;;;2.40;1.00;;;;;;;29.55;27.76;100198.28;5294026;27;20442;-84
2021/08/28 11:24:34;;;;;;;2.30;0.73;;;;;;;29.57;27.63;100190.88;5299967;27;20403;-83
2021/08/28 11:27:04;;;;;;;1.30;0.75;;;;;;;29.14;28.85;100191.94;5300151;27;20195;-82
2021/08/28 11:29:48;;;;;;;1.15;0.60;;;;;;;29.11;29.50;100194.91;5299999;27;20119;-83
2021/08/28 11:32:17;;;;;;;2.92;0.60;;;;;;;29.28;30.45;100201.56;5300281;27;20056;-83
2021/08/28 11:34:49;;;;;;;1.77;0.70;;;;;;;29.39;29.00;100195.22;5299948;27;20451;-83
2021/08/28 11:37:28;;;;;;;2.17;0.68;;;;;;;29.31;28.66;100197.75;5300212;27;20114;-82
2021/08/28 11:39:56;;;;;;;1.52;0.70;;;;;;;29.54;28.19;100201.97;5300145;27;20450;-82
2021/08/28 11:42:26;;;;;;;1.52;0.88;;;;;;;29.40;28.21;100208.59;5300476;27;20140;-83
2021/08/28 11:44:55;;;;;;;2.17;0.80;;;;;;;29.54;28.40;100215.53;5300108;27;20362;-83
2021/08/28 11:47:23;;;;;;;1.40;0.57;;;;;;;29.80;27.72;100212.38;5300219;27;20068;-82
2021/08/28 11:49:58;;;;;;;0.80;0.70;;;;;;;29.60;28.00;100212.25;5299868;27;20070;-83
2021/08/28 11:52:25;;;;;;;1.70;0.73;;;;;;;29.78;28.17;100200.81;5300209;27;20429;-83
2021/08/28 11:54:52;;;;;;;1.35;0.77;;;;;;;29.58;27.77;100202.56;5299850;27;20073;-83
2021/08/28 11:57:21;;;;;;;0.50;0.50;;;;;;;29.94;27.48;100198.44;5300140;27;20083;-82
2021/08/28 11:59:48;;;;;;;1.62;0.70;;;;;;;29.93;29.34;100185.91;5299944;27;20053;-83
2021/08/28 12:02:22;;;;;;;2.53;0.70;;;;;;;30.22;25.95;100194.13;5299922;27;20072;-83
2021/08/28 12:04:51;;;;;;;1.05;0.52;;;;;;;29.98;27.16;100186.34;5299955;27;20429;-82
2021/08/28 12:07:18;;;;;;;2.42;0.90;;;;;;;29.06;29.98;100190.88;5300034;27;20122;-83
2021/08/28 12:09:46;;;;;;;1.48;0.98;;;;;;;29.36;27.91;100182.81;5300022;27;20059;-82
2021/08/28 12:12:13;;;;;;;2.42;0.73;;;;;;;29.27;26.65;100171.91;5299592;27;20061;-83
2021/08/28 12:14:40;;;;;;;1.23;0.70;;;;;;;29.23;27.43;100154.25;5299858;27;20061;-83
2021/08/28 12:17:08;;;;;;;2.58;0.70;;;;;;;29.00;28.33;100154.38;5299755;27;20086;-82
2021/08/28 12:19:36;;;;;;;1.85;1.25;;;;;;;29.37;26.84;100159.31;5300008;27;20076;-82
2021/08/28 12:22:08;;;;;;;1.67;0.97;;;;;;;29.39;28.51;100151.94;5299794;27;20056;-83
2021/08/28 12:24:38;;;;;;;0.90;0.70;;;;;;;29.19;27.96;100142.84;5300253;27;20141;-83
2021/08/28 12:27:08;;;;;;;3.15;0.93;;;;;;;29.35;29.00;100145.06;5299954;27;20078;-83
2021/08/28 12:29:44;;;;;;;0.77;0.43;;;;;;;29.44;26.39;100146.94;5299771;27;20123;-83
2021/08/28 12:32:18;;;;;;;0.98;0.50;;;;;;;29.15;26.16;100139.56;5299362;27;20338;-82
2021/08/28 12:34:50;;;;;;;1.58;0.95;;;;;;;28.82;30.44;100145.16;5299931;27;20119;-82